TimeCDT,TemperatureF,Dew PointF,Humidity,Sea Level PressureIn,VisibilityMPH,Wind Direction,Wind SpeedMPH,Gust SpeedMPH,PrecipitationIn,Events,Conditions,WindDirDegrees,DateUTC
12:13 AM,62.6,42.8,48,29.74,10.0,SSW,12.7,23.0,N/A,,Clear,200,2013-09-30 05:13:00
12:33 AM,62.6,42.8,48,29.73,10.0,SSW,17.3,-,N/A,,Clear,200,2013-09-30 05:33:00
12:53 AM,62.6,42.8,48,29.72,10.0,SSW,18.4,25.3,N/A,,Clear,200,2013-09-30 05:53:00
1:13 AM,62.6,42.8,48,29.72,10.0,SSW,18.4,25.3,N/A,,Clear,210,2013-09-30 06:13:00
1:34 AM,62.6,42.8,48,29.71,10.0,SSW,19.6,26.5,N/A,,Clear,200,2013-09-30 06:34:00
1:53 AM,62.6,42.8,48,29.71,10.0,SSW,18.4,26.5,N/A,,Clear,210,2013-09-30 06:53:00
2:13 AM,62.6,42.8,48,29.71,10.0,SSW,17.3,21.9,N/A,,Clear,210,2013-09-30 07:13:00
2:34 AM,60.8,42.8,52,29.71,10.0,SSW,16.1,24.2,N/A,,Clear,210,2013-09-30 07:34:00
2:53 AM,60.8,42.8,52,29.71,10.0,SSW,15.0,23.0,N/A,,Clear,210,2013-09-30 07:53:00
3:13 AM,60.8,42.8,52,29.70,10.0,SSW,15.0,21.9,N/A,,Clear,210,2013-09-30 08:13:00
3:33 AM,60.8,42.8,52,29.69,10.0,SSW,13.8,20.7,N/A,,Clear,210,2013-09-30 08:33:00
3:53 AM,59.0,42.8,55,29.69,10.0,SSW,13.8,19.6,N/A,,Clear,210,2013-09-30 08:53:00
4:13 AM,59.0,42.8,55,29.68,10.0,SSW,13.8,-,N/A,,Clear,200,2013-09-30 09:13:00
4:33 AM,59.0,42.8,55,29.68,10.0,SSW,13.8,-,N/A,,Clear,200,2013-09-30 09:33:00
4:53 AM,57.2,42.8,59,29.67,10.0,SSW,13.8,-,N/A,,Clear,200,2013-09-30 09:53:00
5:14 AM,57.2,42.8,59,29.68,10.0,SSW,11.5,17.3,N/A,,Clear,200,2013-09-30 10:14:00
5:33 AM,57.2,44.6,63,29.68,10.0,South,9.2,-,N/A,,Clear,190,2013-09-30 10:33:00
5:53 AM,57.2,44.6,63,29.68,10.0,SSW,9.2,-,N/A,,Clear,200,2013-09-30 10:53:00
6:14 AM,55.4,44.6,67,29.67,10.0,South,9.2,-,N/A,,Clear,190,2013-09-30 11:14:00
6:33 AM,55.4,44.6,67,29.67,10.0,South,9.2,-,N/A,,Clear,190,2013-09-30 11:33:00
6:53 AM,55.4,44.6,67,29.67,10.0,SSW,10.4,-,N/A,,Clear,200,2013-09-30 11:53:00
7:14 AM,55.4,44.6,67,29.67,10.0,SSW,9.2,-,N/A,,Clear,200,2013-09-30 12:14:00
7:33 AM,55.4,44.6,67,29.67,10.0,SSW,11.5,-,N/A,,Clear,200,2013-09-30 12:33:00
7:53 AM,55.4,44.6,67,29.67,10.0,SSW,10.4,-,N/A,,Clear,200,2013-09-30 12:53:00
8:13 AM,55.4,44.6,67,29.67,10.0,SSW,11.5,-,N/A,,Clear,200,2013-09-30 13:13:00
8:33 AM,57.2,44.6,63,29.66,10.0,SSW,12.7,-,N/A,,Clear,210,2013-09-30 13:33:00
8:53 AM,57.2,46.4,67,29.66,10.0,SSW,12.7,18.4,N/A,,Clear,210,2013-09-30 13:53:00
9:13 AM,59.0,46.4,63,29.66,10.0,SSW,13.8,17.3,N/A,,Clear,210,2013-09-30 14:13:00
9:33 AM,60.8,46.4,59,29.66,10.0,SSW,13.8,17.3,N/A,,Clear,210,2013-09-30 14:33:00
9:52 AM,60.8,46.4,59,29.65,10.0,SSW,17.3,23.0,N/A,,Clear,210,2013-09-30 14:52:00
10:13 AM,62.6,46.4,55,29.64,10.0,SSW,12.7,19.6,N/A,,Clear,210,2013-09-30 15:13:00
10:33 AM,64.4,46.4,52,29.66,10.0,SSW,12.7,-,N/A,,Clear,210,2013-09-30 15:33:00
10:52 AM,66.2,46.4,49,29.67,10.0,SW,12.7,20.7,N/A,,Clear,230,2013-09-30 15:52:00
11:13 AM,66.2,46.4,49,29.66,10.0,SW,12.7,-,N/A,,Clear,230,2013-09-30 16:13:00
11:33 AM,68.0,46.4,46,29.66,10.0,SW,11.5,-,N/A,,Clear,230,2013-09-30 16:33:00
11:54 AM,69.8,46.4,43,29.65,10.0,SSW,11.5,-,N/A,,Clear,210,2013-09-30 16:54:00
12:13 PM,71.6,46.4,41,29.65,10.0,SW,11.5,16.1,N/A,,Clear,230,2013-09-30 17:13:00
12:33 PM,71.6,46.4,41,29.65,10.0,SW,10.4,-,N/A,,Clear,220,2013-09-30 17:33:00
12:53 PM,73.4,44.6,36,29.65,10.0,SW,9.2,-,N/A,,Clear,220,2013-09-30 17:53:00
1:13 PM,75.2,44.6,34,29.64,10.0,SW,12.7,-,N/A,,Clear,220,2013-09-30 18:13:00
1:32 PM,75.2,44.6,34,29.63,10.0,SW,10.4,17.3,N/A,,Clear,230,2013-09-30 18:32:00
1:53 PM,75.2,44.6,34,29.63,10.0,SW,12.7,18.4,N/A,,Clear,230,2013-09-30 18:53:00
2:13 PM,77.0,44.6,32,29.62,10.0,SW,15.0,20.7,N/A,,Clear,220,2013-09-30 19:13:00
2:32 PM,78.8,44.6,30,29.62,10.0,SW,15.0,19.6,N/A,,Clear,220,2013-09-30 19:32:00
2:53 PM,78.8,44.6,30,29.62,10.0,SW,12.7,19.6,N/A,,Clear,220,2013-09-30 19:53:00
3:13 PM,80.6,44.6,28,29.62,10.0,SW,13.8,20.7,N/A,,Clear,230,2013-09-30 20:13:00
3:33 PM,78.8,42.8,28,29.62,10.0,SW,15.0,20.7,N/A,,Clear,230,2013-09-30 20:33:00
3:53 PM,78.8,44.6,30,29.61,10.0,SW,16.1,-,N/A,,Clear,220,2013-09-30 20:53:00
4:13 PM,80.6,44.6,28,29.61,10.0,SSW,13.8,19.6,N/A,,Clear,210,2013-09-30 21:13:00
4:32 PM,80.6,44.6,28,29.60,10.0,SW,13.8,20.7,N/A,,Clear,220,2013-09-30 21:32:00
4:53 PM,80.6,42.8,26,29.60,10.0,SW,13.8,20.7,N/A,,Clear,230,2013-09-30 21:53:00
5:12 PM,80.6,42.8,26,29.60,10.0,SW,12.7,17.3,N/A,,Clear,220,2013-09-30 22:12:00
5:33 PM,80.6,42.8,26,29.59,10.0,SW,12.7,19.6,N/A,,Clear,230,2013-09-30 22:33:00
5:53 PM,80.6,42.8,26,29.60,10.0,SW,11.5,-,N/A,,Clear,230,2013-09-30 22:53:00
6:13 PM,78.8,44.6,30,29.60,10.0,SW,9.2,-,N/A,,Clear,220,2013-09-30 23:13:00
6:33 PM,77.0,44.6,32,29.60,10.0,SSW,5.8,-,N/A,,Clear,210,2013-09-30 23:33:00
6:53 PM,73.4,46.4,38,29.60,10.0,SSW,4.6,-,N/A,,Clear,210,2013-09-30 23:53:00
7:13 PM,71.6,46.4,41,29.61,10.0,SSW,3.5,-,N/A,,Clear,200,2013-10-01 00:13:00
7:33 PM,69.8,46.4,43,29.61,10.0,South,6.9,-,N/A,,Clear,190,2013-10-01 00:33:00
7:53 PM,71.6,44.6,38,29.61,10.0,South,8.1,-,N/A,,Clear,180,2013-10-01 00:53:00
8:13 PM,69.8,44.6,40,29.61,10.0,South,9.2,-,N/A,,Clear,190,2013-10-01 01:13:00
8:33 PM,71.6,46.4,41,29.61,10.0,SSW,10.4,-,N/A,,Clear,200,2013-10-01 01:33:00
8:53 PM,71.6,46.4,41,29.62,10.0,SSW,10.4,-,N/A,,Clear,200,2013-10-01 01:53:00
9:13 PM,69.8,46.4,43,29.62,10.0,South,8.1,-,N/A,,Clear,190,2013-10-01 02:13:00
9:33 PM,69.8,46.4,43,29.61,10.0,South,9.2,-,N/A,,Clear,180,2013-10-01 02:33:00
9:53 PM,69.8,48.2,46,29.61,10.0,South,10.4,16.1,N/A,,Clear,180,2013-10-01 02:53:00
10:13 PM,69.8,48.2,46,29.61,10.0,SSW,15.0,18.4,N/A,,Clear,200,2013-10-01 03:13:00
10:33 PM,69.8,48.2,46,29.61,10.0,SSW,13.8,-,N/A,,Clear,200,2013-10-01 03:33:00
10:53 PM,68.0,48.2,49,29.61,10.0,SSW,12.7,18.4,N/A,,Clear,200,2013-10-01 03:53:00
11:13 PM,66.2,50.0,56,29.61,10.0,SSW,12.7,19.6,N/A,,Clear,200,2013-10-01 04:13:00
11:33 PM,66.2,50.0,56,29.61,10.0,SSW,13.8,18.4,N/A,,Clear,210,2013-10-01 04:33:00
11:53 PM,66.2,50.0,56,29.61,10.0,SSW,13.8,-,N/A,,Clear,210,2013-10-01 04:53:00